Terminal Aerodrome Forecast
Issued by NWS Memphis, TN

Home | Current Version | Previous Version | Text Only | Print | Product List | Glossary On
Versions: 1 2 3 4 5 6 7 8 9 10 11 12 13 14 15 16 17 18 19 20 21 22 23 24 25
843
FTUS44 KMEG 282110 AAA
TAFMEM
TAF AMD
KMEM 282110Z 2821/2918 20016G25KT P6SM SCT025 BKN040
     FM290100 18015G25KT P6SM SCT040 BKN250
     FM290900 18015G25KT P6SM BKN015
     FM291500 17020G30KT P6SM SCT025 BKN035=

USA.gov is the U.S. government's official web portal to all federal, state and local government web resources and services.